sensor_id;sensor_type;location;lat;lon;timestamp;pressure;altitude;pressure_sealevel;temperature;humidity
86089;BME280;76699;52.232;5.176;2024-03-23T00:54:31;101003.38;;;6.17;86.81
86089;BME280;76699;52.232;5.176;2024-03-23T00:56:57;101002.91;;;6.12;86.80
86089;BME280;76699;52.232;5.176;2024-03-23T00:59:22;100997.75;;;6.10;86.85
86089;BME280;76699;52.232;5.176;2024-03-23T01:01:52;100991.88;;;6.07;86.92
86089;BME280;76699;52.232;5.176;2024-03-23T01:04:17;100987.63;;;6.04;86.75
86089;BME280;76699;52.232;5.176;2024-03-23T01:06:43;100985.25;;;6.01;87.21
86089;BME280;76699;52.232;5.176;2024-03-23T01:09:08;100978.53;;;5.97;87.03
86089;BME280;76699;52.232;5.176;2024-03-23T01:11:36;100986.13;;;5.90;86.99
86089;BME280;76699;52.232;5.176;2024-03-23T01:14:01;100974.88;;;5.87;87.12
86089;BME280;76699;52.232;5.176;2024-03-23T01:16:26;100976.81;;;5.85;87.60
86089;BME280;76699;52.232;5.176;2024-03-23T01:18:52;100969.13;;;5.82;87.50
86089;BME280;76699;52.232;5.176;2024-03-23T01:21:17;100965.06;;;5.78;87.43
86089;BME280;76699;52.232;5.176;2024-03-23T01:23:42;100973.25;;;5.74;87.36
86089;BME280;76699;52.232;5.176;2024-03-23T01:26:08;100963.00;;;5.70;87.64
86089;BME280;76699;52.232;5.176;2024-03-23T01:28:33;100959.75;;;5.66;87.63
86089;BME280;76699;52.232;5.176;2024-03-23T01:30:58;100954.97;;;5.60;87.52
86089;BME280;76699;52.232;5.176;2024-03-23T01:33:24;100953.75;;;5.53;87.21
86089;BME280;76699;52.232;5.176;2024-03-23T01:35:49;100942.00;;;5.46;87.32
86089;BME280;76699;52.232;5.176;2024-03-23T01:38:14;100952.94;;;5.41;87.30
86089;BME280;76699;52.232;5.176;2024-03-23T01:40:40;100942.84;;;5.35;87.39
86089;BME280;76699;52.232;5.176;2024-03-23T01:43:07;100932.88;;;5.28;86.98
86089;BME280;76699;52.232;5.176;2024-03-23T01:45:35;100944.03;;;5.20;87.41
86089;BME280;76699;52.232;5.176;2024-03-23T01:48:01;100936.59;;;5.14;87.69
86089;BME280;76699;52.232;5.176;2024-03-23T01:50:28;100940.69;;;5.07;87.27
86089;BME280;76699;52.232;5.176;2024-03-23T01:52:55;100940.28;;;5.00;87.57
86089;BME280;76699;52.232;5.176;2024-03-23T01:55:21;100939.94;;;4.94;87.53
86089;BME280;76699;52.232;5.176;2024-03-23T01:57:46;100934.03;;;4.90;87.52
86089;BME280;76699;52.232;5.176;2024-03-23T02:00:12;100939.44;;;4.89;88.11
86089;BME280;76699;52.232;5.176;2024-03-23T02:02:45;100930.88;;;4.85;88.15
86089;BME280;76699;52.232;5.176;2024-03-23T02:05:11;100925.00;;;4.81;87.98
86089;BME280;76699;52.232;5.176;2024-03-23T02:07:38;100928.72;;;4.79;87.97
86089;BME280;76699;52.232;5.176;2024-03-23T02:10:05;100933.06;;;4.80;88.28
86089;BME280;76699;52.232;5.176;2024-03-23T02:12:31;100930.28;;;4.81;88.71
86089;BME280;76699;52.232;5.176;2024-03-23T02:14:56;100931.00;;;4.83;89.38
86089;BME280;76699;52.232;5.176;2024-03-23T02:17:21;100924.16;;;4.81;88.96
86089;BME280;76699;52.232;5.176;2024-03-23T02:19:47;100920.56;;;4.82;88.45
86089;BME280;76699;52.232;5.176;2024-03-23T02:22:12;100928.50;;;4.82;88.64
86089;BME280;76699;52.232;5.176;2024-03-23T02:24:37;100919.00;;;4.79;88.44
86089;BME280;76699;52.232;5.176;2024-03-23T02:27:03;100914.94;;;4.75;88.29
86089;BME280;76699;52.232;5.176;2024-03-23T02:29:28;100918.66;;;4.73;88.17
86089;BME280;76699;52.232;5.176;2024-03-23T02:31:53;100914.31;;;4.72;88.18
86089;BME280;76699;52.232;5.176;2024-03-23T02:34:19;100911.06;;;4.68;88.14
86089;BME280;76699;52.232;5.176;2024-03-23T02:36:44;100902.66;;;4.63;87.92
86089;BME280;76699;52.232;5.176;2024-03-23T02:39:09;100897.72;;;4.59;88.29
86089;BME280;76699;52.232;5.176;2024-03-23T02:41:35;100897.00;;;4.57;87.99
86089;BME280;76699;52.232;5.176;2024-03-23T02:44:01;100899.88;;;4.53;88.30
86089;BME280;76699;52.232;5.176;2024-03-23T02:46:26;100894.94;;;4.49;88.11
86089;BME280;76699;52.232;5.176;2024-03-23T02:48:51;100896.13;;;4.45;88.13
86089;BME280;76699;52.232;5.176;2024-03-23T02:51:16;100902.47;;;4.42;88.00
86089;BME280;76699;52.232;5.176;2024-03-23T02:53:42;100899.84;;;4.42;88.09
86089;BME280;76699;52.232;5.176;2024-03-23T02:56:07;100897.19;;;4.42;87.84
86089;BME280;76699;52.232;5.176;2024-03-23T02:58:33;100896.34;;;4.42;88.24
86089;BME280;76699;52.232;5.176;2024-03-23T03:00:58;100902.72;;;4.39;88.32
86089;BME280;76699;52.232;5.176;2024-03-23T03:03:24;100904.84;;;4.34;88.04
86089;BME280;76699;52.232;5.176;2024-03-23T03:05:55;100898.94;;;4.31;87.95
86089;BME280;76699;52.232;5.176;2024-03-23T03:08:20;100901.81;;;4.28;87.91
86089;BME280;76699;52.232;5.176;2024-03-23T03:10:46;100898.56;;;4.24;87.90
86089;BME280;76699;52.232;5.176;2024-03-23T03:13:11;100895.53;;;4.17;87.74
86089;BME280;76699;52.232;5.176;2024-03-23T03:15:36;100894.09;;;4.13;87.82
86089;BME280;76699;52.232;5.176;2024-03-23T03:18:02;100892.63;;;4.09;87.91
86089;BME280;76699;52.232;5.176;2024-03-23T03:20:27;100886.63;;;4.07;87.97
86089;BME280;76699;52.232;5.176;2024-03-23T03:22:53;100888.66;;;4.04;87.59
86089;BME280;76699;52.232;5.176;2024-03-23T03:25:18;100892.47;;;4.00;87.67
86089;BME280;76699;52.232;5.176;2024-03-23T03:27:44;100888.38;;;3.96;87.56
86089;BME280;76699;52.232;5.176;2024-03-23T03:30:09;100888.59;;;3.92;87.58
86089;BME280;76699;52.232;5.176;2024-03-23T03:32:35;100889.06;;;3.86;87.58
86089;BME280;76699;52.232;5.176;2024-03-23T03:35:00;100886.75;;;3.82;87.47
86089;BME280;76699;52.232;5.176;2024-03-23T03:37:25;100876.53;;;3.77;87.64
86089;BME280;76699;52.232;5.176;2024-03-23T03:39:51;100877.84;;;3.72;87.60
86089;BME280;76699;52.232;5.176;2024-03-23T03:42:16;100879.75;;;3.70;87.80
86089;BME280;76699;52.232;5.176;2024-03-23T03:44:41;100873.00;;;3.66;87.87
86089;BME280;76699;52.232;5.176;2024-03-23T03:47:07;100875.13;;;3.60;87.71
86089;BME280;76699;52.232;5.176;2024-03-23T03:49:32;100875.34;;;3.57;87.78
86089;BME280;76699;52.232;5.176;2024-03-23T03:51:57;100868.81;;;3.50;87.68
86089;BME280;76699;52.232;5.176;2024-03-23T03:54:23;100863.88;;;3.46;87.86
86089;BME280;76699;52.232;5.176;2024-03-23T03:56:48;100859.78;;;3.42;87.70
86089;BME280;76699;52.232;5.176;2024-03-23T03:59:14;100861.81;;;3.38;87.67
86089;BME280;76699;52.232;5.176;2024-03-23T04:01:40;100866.25;;;3.38;87.98
86089;BME280;76699;52.232;5.176;2024-03-23T04:04:05;100865.28;;;3.39;87.97
86089;BME280;76699;52.232;5.176;2024-03-23T04:06:31;100862.72;;;3.50;88.22
86089;BME280;76699;52.232;5.176;2024-03-23T04:08:58;100870.56;;;3.62;88.00
86089;BME280;76699;52.232;5.176;2024-03-23T04:11:23;100857.91;;;3.68;87.80
86089;BME280;76699;52.232;5.176;2024-03-23T04:13:48;100867.47;;;3.69;87.80
86089;BME280;76699;52.232;5.176;2024-03-23T04:16:31;100859.69;;;3.67;87.65
86089;BME280;76699;52.232;5.176;2024-03-23T04:18:57;100853.81;;;3.63;87.71
86089;BME280;76699;52.232;5.176;2024-03-23T04:21:23;100846.34;;;3.57;87.99
86089;BME280;76699;52.232;5.176;2024-03-23T04:23:48;100848.69;;;3.49;87.88
86089;BME280;76699;52.232;5.176;2024-03-23T04:26:14;100853.47;;;3.44;88.06
86089;BME280;76699;52.232;5.176;2024-03-23T04:28:40;100856.75;;;3.35;87.92
86089;BME280;76699;52.232;5.176;2024-03-23T04:31:05;100857.28;;;3.27;87.83
86089;BME280;76699;52.232;5.176;2024-03-23T04:33:30;100856.91;;;3.21;87.91
86089;BME280;76699;52.232;5.176;2024-03-23T04:35:56;100848.34;;;3.17;88.03
86089;BME280;76699;52.232;5.176;2024-03-23T04:38:21;100851.94;;;3.16;88.02
86089;BME280;76699;52.232;5.176;2024-03-23T04:40:57;100852.06;;;3.15;87.92
86089;BME280;76699;52.232;5.176;2024-03-23T04:43:22;100849.63;;;3.12;88.11
86089;BME280;76699;52.232;5.176;2024-03-23T04:45:48;100856.19;;;3.06;87.99
86089;BME280;76699;52.232;5.176;2024-03-23T04:48:13;100857.88;;;3.07;88.06
86089;BME280;76699;52.232;5.176;2024-03-23T04:50:38;100851.88;;;3.05;88.10
86089;BME280;76699;52.232;5.176;2024-03-23T04:53:04;100848.06;;;3.09;88.29
86089;BME280;76699;52.232;5.176;2024-03-23T04:55:29;100844.59;;;3.09;88.37
86089;BME280;76699;52.232;5.176;2024-03-23T04:57:56;100849.03;;;3.08;88.07
86089;BME280;76699;52.232;5.176;2024-03-23T05:00:21;100850.19;;;3.04;87.98
86089;BME280;76699;52.232;5.176;2024-03-23T05:02:46;100839.66;;;3.04;88.16
86089;BME280;76699;52.232;5.176;2024-03-23T05:05:12;100844.16;;;3.02;88.12
86089;BME280;76699;52.232;5.176;2024-03-23T05:07:37;100839.84;;;3.01;88.12
86089;BME280;76699;52.232;5.176;2024-03-23T05:10:03;100847.66;;;3.03;88.23
86089;BME280;76699;52.232;5.176;2024-03-23T05:12:28;100837.97;;;3.03;88.45
86089;BME280;76699;52.232;5.176;2024-03-23T05:14:53;100840.50;;;3.05;88.34
86089;BME280;76699;52.232;5.176;2024-03-23T05:17:19;100836.25;;;3.02;88.23
86089;BME280;76699;52.232;5.176;2024-03-23T05:19:44;100846.78;;;3.02;88.26
86089;BME280;76699;52.232;5.176;2024-03-23T05:22:09;100845.78;;;3.05;88.12
86089;BME280;76699;52.232;5.176;2024-03-23T05:24:35;100850.69;;;3.09;88.42
86089;BME280;76699;52.232;5.176;2024-03-23T05:27:00;100853.22;;;3.11;88.27
86089;BME280;76699;52.232;5.176;2024-03-23T05:29:26;100842.47;;;3.14;88.20
86089;BME280;76699;52.232;5.176;2024-03-23T05:31:51;100847.63;;;3.15;88.02
86089;BME280;76699;52.232;5.176;2024-03-23T05:34:17;100855.31;;;3.18;87.94
86089;BME280;76699;52.232;5.176;2024-03-23T05:36:43;100853.22;;;3.23;88.08
86089;BME280;76699;52.232;5.176;2024-03-23T05:39:08;100847.38;;;3.31;88.16
86089;BME280;76699;52.232;5.176;2024-03-23T05:41:33;100846.84;;;3.39;88.04
86089;BME280;76699;52.232;5.176;2024-03-23T05:44:01;100837.53;;;3.46;88.11
86089;BME280;76699;52.232;5.176;2024-03-23T05:46:26;100831.94;;;3.50;87.93
86089;BME280;76699;52.232;5.176;2024-03-23T05:48:52;100835.41;;;3.51;87.98
86089;BME280;76699;52.232;5.176;2024-03-23T05:51:17;100827.19;;;3.55;87.81
86089;BME280;76699;52.232;5.176;2024-03-23T05:53:43;100830.19;;;3.62;87.94
86089;BME280;76699;52.232;5.176;2024-03-23T05:56:09;100838.59;;;3.67;87.97
86089;BME280;76699;52.232;5.176;2024-03-23T05:58:34;100832.28;;;3.70;87.85
86089;BME280;76699;52.232;5.176;2024-03-23T06:01:00;100833.97;;;3.71;87.63
86089;BME280;76699;52.232;5.176;2024-03-23T06:03:27;100832.44;;;3.79;87.78
86089;BME280;76699;52.232;5.176;2024-03-23T06:05:52;100834.28;;;3.90;87.70
86089;BME280;76699;52.232;5.176;2024-03-23T06:08:21;100827.94;;;4.28;87.46
86089;BME280;76699;52.232;5.176;2024-03-23T06:10:47;100832.09;;;4.65;86.86
86089;BME280;76699;52.232;5.176;2024-03-23T06:13:13;100834.97;;;4.84;86.59
86089;BME280;76699;52.232;5.176;2024-03-23T06:15:38;100841.56;;;5.12;86.58
86089;BME280;76699;52.232;5.176;2024-03-23T06:18:04;100843.78;;;5.62;85.72
86089;BME280;76699;52.232;5.176;2024-03-23T06:20:30;100841.03;;;6.07;85.10
86089;BME280;76699;52.232;5.176;2024-03-23T06:22:55;100823.78;;;6.33;84.87
86089;BME280;76699;52.232;5.176;2024-03-23T06:25:21;100825.91;;;6.60;85.16
86089;BME280;76699;52.232;5.176;2024-03-23T06:27:46;100823.56;;;6.97;84.69
86089;BME280;76699;52.232;5.176;2024-03-23T06:30:12;100822.84;;;7.26;83.91
86089;BME280;76699;52.232;5.176;2024-03-23T06:32:37;100823.34;;;7.60;84.61
86089;BME280;76699;52.232;5.176;2024-03-23T06:35:03;100819.72;;;7.99;81.58
86089;BME280;76699;52.232;5.176;2024-03-23T06:37:33;100815.84;;;8.69;80.24
86089;BME280;76699;52.232;5.176;2024-03-23T06:39:58;100825.16;;;9.48;80.49
86089;BME280;76699;52.232;5.176;2024-03-23T06:42:24;100827.69;;;10.38;80.55
86089;BME280;76699;52.232;5.176;2024-03-23T06:44:49;100818.41;;;11.02;79.73
86089;BME280;76699;52.232;5.176;2024-03-23T06:47:14;100828.72;;;11.39;76.76
86089;BME280;76699;52.232;5.176;2024-03-23T06:49:40;100817.47;;;11.70;74.28
86089;BME280;76699;52.232;5.176;2024-03-23T06:52:05;100820.56;;;12.16;75.73
86089;BME280;76699;52.232;5.176;2024-03-23T06:54:30;100824.69;;;12.59;74.22
86089;BME280;76699;52.232;5.176;2024-03-23T06:56:56;100823.59;;;13.01;73.04
86089;BME280;76699;52.232;5.176;2024-03-23T06:59:21;100816.81;;;13.60;74.63
86089;BME280;76699;52.232;5.176;2024-03-23T07:01:46;100823.91;;;13.76;70.89
86089;BME280;76699;52.232;5.176;2024-03-23T07:04:12;100823.09;;;14.21;71.41
86089;BME280;76699;52.232;5.176;2024-03-23T07:06:43;100829.16;;;14.38;68.44
86089;BME280;76699;52.232;5.176;2024-03-23T07:09:09;100824.63;;;14.91;68.71
86089;BME280;76699;52.232;5.176;2024-03-23T07:11:35;100819.06;;;14.63;66.00
86089;BME280;76699;52.232;5.176;2024-03-23T07:14:01;100818.19;;;14.25;65.86
86089;BME280;76699;52.232;5.176;2024-03-23T07:16:29;100810.72;;;14.72;64.54
86089;BME280;76699;52.232;5.176;2024-03-23T07:18:55;100818.97;;;15.00;64.13
86089;BME280;76699;52.232;5.176;2024-03-23T07:21:20;100817.53;;;15.49;64.45
86089;BME280;76699;52.232;5.176;2024-03-23T07:23:46;100822.97;;;15.70;62.63
86089;BME280;76699;52.232;5.176;2024-03-23T07:26:11;100817.97;;;14.87;61.66
86089;BME280;76699;52.232;5.176;2024-03-23T07:28:37;100825.00;;;15.17;62.94
86089;BME280;76699;52.232;5.176;2024-03-23T07:31:08;100833.41;;;14.85;59.71
86089;BME280;76699;52.232;5.176;2024-03-23T07:33:35;100832.63;;;14.47;60.87
86089;BME280;76699;52.232;5.176;2024-03-23T07:36:01;100833.25;;;13.57;61.14
86089;BME280;76699;52.232;5.176;2024-03-23T07:38:27;100828.72;;;12.47;60.66
86089;BME280;76699;52.232;5.176;2024-03-23T07:41:05;100841.31;;;11.63;61.91
86089;BME280;76699;52.232;5.176;2024-03-23T07:43:31;100831.06;;;11.00;62.66
86089;BME280;76699;52.232;5.176;2024-03-23T07:45:56;100835.19;;;10.61;63.26
86089;BME280;76699;52.232;5.176;2024-03-23T07:48:22;100828.44;;;11.51;64.08
86089;BME280;76699;52.232;5.176;2024-03-23T07:53:25;100809.03;;;12.31;62.22
86089;BME280;76699;52.232;5.176;2024-03-23T07:56:02;100818.13;;;11.72;60.58
86089;BME280;76699;52.232;5.176;2024-03-23T07:58:28;100815.88;;;11.27;62.87
86089;BME280;76699;52.232;5.176;2024-03-23T08:00:54;100818.00;;;10.89;63.10
86089;BME280;76699;52.232;5.176;2024-03-23T08:03:20;100819.91;;;10.71;63.09
86089;BME280;76699;52.232;5.176;2024-03-23T08:05:45;100818.97;;;11.64;63.15
86089;BME280;76699;52.232;5.176;2024-03-23T08:08:11;100821.72;;;11.97;61.80
86089;BME280;76699;52.232;5.176;2024-03-23T08:10:46;100812.63;;;11.73;61.40
86089;BME280;76699;52.232;5.176;2024-03-23T08:13:11;100832.75;;;11.01;61.68
86089;BME280;76699;52.232;5.176;2024-03-23T08:15:37;100824.72;;;10.67;61.97
86089;BME280;76699;52.232;5.176;2024-03-23T08:18:02;100826.63;;;10.31;62.00
86089;BME280;76699;52.232;5.176;2024-03-23T08:20:28;100832.88;;;10.04;62.34
86089;BME280;76699;52.232;5.176;2024-03-23T08:22:53;100815.59;;;9.73;62.38
86089;BME280;76699;52.232;5.176;2024-03-23T08:25:18;100825.34;;;9.64;62.99
86089;BME280;76699;52.232;5.176;2024-03-23T08:27:44;100824.66;;;9.80;63.31
86089;BME280;76699;52.232;5.176;2024-03-23T08:30:10;100822.38;;;10.03;62.49
86089;BME280;76699;52.232;5.176;2024-03-23T08:32:36;100813.69;;;10.36;62.45
86089;BME280;76699;52.232;5.176;2024-03-23T08:35:03;100820.91;;;10.70;62.73
86089;BME280;76699;52.232;5.176;2024-03-23T08:37:29;100824.75;;;12.10;62.29
86089;BME280;76699;52.232;5.176;2024-03-23T08:39:54;100820.19;;;13.15;60.94
86089;BME280;76699;52.232;5.176;2024-03-23T08:42:19;100822.38;;;13.81;59.07
86089;BME280;76699;52.232;5.176;2024-03-23T08:44:47;100821.66;;;14.71;57.58
86089;BME280;76699;52.232;5.176;2024-03-23T08:47:15;100810.38;;;15.92;56.47
86089;BME280;76699;52.232;5.176;2024-03-23T08:49:41;100803.34;;;16.40;56.13
86089;BME280;76699;52.232;5.176;2024-03-23T08:52:06;100808.34;;;16.15;54.90
86089;BME280;76699;52.232;5.176;2024-03-23T08:54:32;100803.38;;;15.40;53.40
86089;BME280;76699;52.232;5.176;2024-03-23T08:56:57;100809.59;;;14.52;53.76
86089;BME280;76699;52.232;5.176;2024-03-23T08:59:22;100820.63;;;13.97;54.84
86089;BME280;76699;52.232;5.176;2024-03-23T09:01:49;100815.72;;;14.46;54.94
86089;BME280;76699;52.232;5.176;2024-03-23T09:04:14;100812.19;;;14.60;52.51
86089;BME280;76699;52.232;5.176;2024-03-23T09:06:42;100811.34;;;13.76;54.16
86089;BME280;76699;52.232;5.176;2024-03-23T09:09:07;100818.88;;;14.04;54.11
86089;BME280;76699;52.232;5.176;2024-03-23T09:11:33;100809.44;;;14.83;53.51
86089;BME280;76699;52.232;5.176;2024-03-23T09:13:58;100816.91;;;15.47;52.71
86089;BME280;76699;52.232;5.176;2024-03-23T09:16:23;100809.34;;;14.91;52.13
86089;BME280;76699;52.232;5.176;2024-03-23T09:18:49;100804.81;;;14.62;53.25
86089;BME280;76699;52.232;5.176;2024-03-23T09:21:14;100799.88;;;15.10;53.22
86089;BME280;76699;52.232;5.176;2024-03-23T09:23:40;100809.81;;;14.65;53.31
86089;BME280;76699;52.232;5.176;2024-03-23T09:26:05;100812.16;;;13.85;53.99
86089;BME280;76699;52.232;5.176;2024-03-23T09:28:34;100813.41;;;12.88;54.70
86089;BME280;76699;52.232;5.176;2024-03-23T09:31:03;100811.78;;;12.79;54.58
86089;BME280;76699;52.232;5.176;2024-03-23T09:33:28;100799.41;;;13.64;54.38
86089;BME280;76699;52.232;5.176;2024-03-23T09:35:54;100803.34;;;14.37;54.13
86089;BME280;76699;52.232;5.176;2024-03-23T09:38:21;100796.16;;;15.26;53.17
86089;BME280;76699;52.232;5.176;2024-03-23T09:40:48;100796.72;;;15.72;51.61
86089;BME280;76699;52.232;5.176;2024-03-23T09:43:18;100793.41;;;15.04;51.37
86089;BME280;76699;52.232;5.176;2024-03-23T09:45:44;100796.50;;;13.97;51.50
86089;BME280;76699;52.232;5.176;2024-03-23T09:48:10;100795.75;;;12.71;53.54
86089;BME280;76699;52.232;5.176;2024-03-23T09:50:40;100802.53;;;11.93;55.15
86089;BME280;76699;52.232;5.176;2024-03-23T09:53:07;100801.16;;;12.05;55.76
86089;BME280;76699;52.232;5.176;2024-03-23T09:55:33;100802.66;;;13.12;55.03
86089;BME280;76699;52.232;5.176;2024-03-23T09:57:58;100802.19;;;14.17;53.95
86089;BME280;76699;52.232;5.176;2024-03-23T10:00:23;100808.78;;;15.11;53.02
86089;BME280;76699;52.232;5.176;2024-03-23T10:02:48;100792.97;;;15.67;50.86
86089;BME280;76699;52.232;5.176;2024-03-23T10:05:23;100807.50;;;15.07;50.41
86089;BME280;76699;52.232;5.176;2024-03-23T10:07:52;100819.03;;;14.25;50.75
86089;BME280;76699;52.232;5.176;2024-03-23T10:10:17;100810.34;;;14.23;51.51
86089;BME280;76699;52.232;5.176;2024-03-23T10:12:47;100803.63;;;14.04;49.93
86089;BME280;76699;52.232;5.176;2024-03-23T10:15:20;100815.69;;;13.54;50.65
86089;BME280;76699;52.232;5.176;2024-03-23T10:17:46;100797.31;;;13.04;51.59
86089;BME280;76699;52.232;5.176;2024-03-23T10:20:12;100803.69;;;12.31;51.92
86089;BME280;76699;52.232;5.176;2024-03-23T10:22:37;100797.97;;;11.78;52.13
86089;BME280;76699;52.232;5.176;2024-03-23T10:25:08;100808.63;;;11.69;52.79
86089;BME280;76699;52.232;5.176;2024-03-23T10:27:33;100806.13;;;12.57;52.68
86089;BME280;76699;52.232;5.176;2024-03-23T10:30:13;100798.78;;;13.77;50.41
86089;BME280;76699;52.232;5.176;2024-03-23T10:32:42;100798.38;;;13.88;50.97
86089;BME280;76699;52.232;5.176;2024-03-23T10:35:18;100799.44;;;13.56;50.14
86089;BME280;76699;52.232;5.176;2024-03-23T10:37:49;100793.63;;;13.13;50.82
86089;BME280;76699;52.232;5.176;2024-03-23T10:40:17;100798.38;;;13.34;51.07
86089;BME280;76699;52.232;5.176;2024-03-23T10:42:43;100781.75;;;13.93;50.42
86089;BME280;76699;52.232;5.176;2024-03-23T10:45:09;100786.50;;;14.81;49.81
86089;BME280;76699;52.232;5.176;2024-03-23T10:47:36;100785.09;;;14.99;47.81
86089;BME280;76699;52.232;5.176;2024-03-23T10:50:02;100783.56;;;15.26;47.07
86089;BME280;76699;52.232;5.176;2024-03-23T10:52:28;100773.69;;;15.63;46.03
86089;BME280;76699;52.232;5.176;2024-03-23T10:54:54;100772.03;;;16.05;44.96
86089;BME280;76699;52.232;5.176;2024-03-23T10:57:30;100784.69;;;16.11;43.82
86089;BME280;76699;52.232;5.176;2024-03-23T10:59:58;100781.81;;;15.91;45.45
86089;BME280;76699;52.232;5.176;2024-03-23T11:02:25;100782.47;;;15.93;44.44
86089;BME280;76699;52.232;5.176;2024-03-23T11:04:52;100782.47;;;15.93;44.91
86089;BME280;76699;52.232;5.176;2024-03-23T11:09:52;100776.44;;;14.30;45.72
86089;BME280;76699;52.232;5.176;2024-03-23T11:15:11;100794.16;;;13.71;46.83
86089;BME280;76699;52.232;5.176;2024-03-23T11:17:37;100787.53;;;14.04;46.52
86089;BME280;76699;52.232;5.176;2024-03-23T11:20:04;100784.00;;;14.41;46.33
86089;BME280;76699;52.232;5.176;2024-03-23T11:25:15;100786.84;;;14.48;47.61
86089;BME280;76699;52.232;5.176;2024-03-23T11:27:41;100780.47;;;14.11;46.60
86089;BME280;76699;52.232;5.176;2024-03-23T11:30:14;100786.03;;;13.56;46.16
86089;BME280;76699;52.232;5.176;2024-03-23T11:32:41;100788.09;;;13.15;47.54
86089;BME280;76699;52.232;5.176;2024-03-23T11:35:07;100782.84;;;12.82;47.52
86089;BME280;76699;52.232;5.176;2024-03-23T11:37:34;100785.34;;;12.84;47.68
86089;BME280;76699;52.232;5.176;2024-03-23T11:39:59;100769.31;;;12.84;47.59
86089;BME280;76699;52.232;5.176;2024-03-23T11:42:25;100775.94;;;12.96;47.96
86089;BME280;76699;52.232;5.176;2024-03-23T11:44:50;100772.63;;;12.94;48.06
86089;BME280;76699;52.232;5.176;2024-03-23T11:47:16;100761.69;;;13.04;48.08
86089;BME280;76699;52.232;5.176;2024-03-23T11:49:41;100767.22;;;13.02;47.33
86089;BME280;76699;52.232;5.176;2024-03-23T11:52:07;100766.22;;;13.03;47.03
86089;BME280;76699;52.232;5.176;2024-03-23T11:54:35;100776.63;;;12.90;47.18
86089;BME280;76699;52.232;5.176;2024-03-23T11:57:02;100769.69;;;12.64;46.86
86089;BME280;76699;52.232;5.176;2024-03-23T11:59:39;100771.88;;;12.53;48.03
86089;BME280;76699;52.232;5.176;2024-03-23T12:02:12;100770.94;;;12.29;47.85
86089;BME280;76699;52.232;5.176;2024-03-23T12:04:41;100759.94;;;12.00;47.65
86089;BME280;76699;52.232;5.176;2024-03-23T12:07:15;100768.75;;;11.76;47.09
86089;BME280;76699;52.232;5.176;2024-03-23T12:09:42;100762.56;;;11.75;47.52
86089;BME280;76699;52.232;5.176;2024-03-23T12:12:16;100757.59;;;11.81;47.83
86089;BME280;76699;52.232;5.176;2024-03-23T12:14:43;100751.41;;;11.88;48.67
86089;BME280;76699;52.232;5.176;2024-03-23T12:17:15;100757.78;;;11.95;49.05
86089;BME280;76699;52.232;5.176;2024-03-23T12:19:41;100755.22;;;11.78;49.53
86089;BME280;76699;52.232;5.176;2024-03-23T12:22:07;100757.22;;;11.59;49.79
86089;BME280;76699;52.232;5.176;2024-03-23T12:24:33;100755.88;;;11.63;49.77
86089;BME280;76699;52.232;5.176;2024-03-23T12:27:03;100744.69;;;11.43;49.57
86089;BME280;76699;52.232;5.176;2024-03-23T12:29:29;100739.50;;;11.58;49.44
86089;BME280;76699;52.232;5.176;2024-03-23T12:32:00;100738.00;;;11.72;49.10
86089;BME280;76699;52.232;5.176;2024-03-23T12:34:26;100738.22;;;11.87;48.23
86089;BME280;76699;52.232;5.176;2024-03-23T12:36:51;100730.38;;;12.10;47.84
86089;BME280;76699;52.232;5.176;2024-03-23T12:39:16;100738.41;;;12.10;48.03
86089;BME280;76699;52.232;5.176;2024-03-23T12:41:42;100733.38;;;12.07;47.57
86089;BME280;76699;52.232;5.176;2024-03-23T12:44:07;100730.38;;;12.10;47.56
86089;BME280;76699;52.232;5.176;2024-03-23T12:46:36;100730.84;;;12.29;47.64
86089;BME280;76699;52.232;5.176;2024-03-23T12:49:02;100738.84;;;12.46;47.39
86089;BME280;76699;52.232;5.176;2024-03-23T12:51:27;100726.69;;;12.27;46.71
86089;BME280;76699;52.232;5.176;2024-03-23T12:53:52;100735.19;;;12.30;46.78
86089;BME280;76699;52.232;5.176;2024-03-23T12:56:17;100745.66;;;12.48;47.49
86089;BME280;76699;52.232;5.176;2024-03-23T12:58:43;100738.56;;;12.80;47.40
86089;BME280;76699;52.232;5.176;2024-03-23T13:01:09;100733.16;;;12.88;47.58
86089;BME280;76699;52.232;5.176;2024-03-23T13:03:34;100730.03;;;12.76;45.94
86089;BME280;76699;52.232;5.176;2024-03-23T13:05:59;100734.03;;;12.80;46.44
86089;BME280;76699;52.232;5.176;2024-03-23T13:08:25;100727.16;;;12.86;45.80
86089;BME280;76699;52.232;5.176;2024-03-23T13:10:53;100722.09;;;12.91;45.90
86089;BME280;76699;52.232;5.176;2024-03-23T13:13:20;100724.59;;;12.53;46.22
86089;BME280;76699;52.232;5.176;2024-03-23T13:15:52;100741.03;;;12.34;45.35
86089;BME280;76699;52.232;5.176;2024-03-23T13:18:17;100728.19;;;12.05;46.48
86089;BME280;76699;52.232;5.176;2024-03-23T13:20:42;100721.53;;;11.85;46.91
86089;BME280;76699;52.232;5.176;2024-03-23T13:23:08;100729.84;;;11.65;47.07
86089;BME280;76699;52.232;5.176;2024-03-23T13:25:34;100728.84;;;11.66;47.97
86089;BME280;76699;52.232;5.176;2024-03-23T13:27:59;100720.97;;;11.57;47.89
86089;BME280;76699;52.232;5.176;2024-03-23T13:30:24;100731.09;;;11.21;48.68
86089;BME280;76699;52.232;5.176;2024-03-23T13:32:49;100737.22;;;10.97;49.39
86089;BME280;76699;52.232;5.176;2024-03-23T13:35:15;100720.56;;;10.61;50.25
86089;BME280;76699;52.232;5.176;2024-03-23T13:37:41;100734.91;;;10.34;51.19
86089;BME280;76699;52.232;5.176;2024-03-23T13:40:07;100713.66;;;10.24;51.02
86089;BME280;76699;52.232;5.176;2024-03-23T13:42:32;100710.03;;;10.07;51.10
86089;BME280;76699;52.232;5.176;2024-03-23T13:44:58;100720.06;;;9.87;50.66
86089;BME280;76699;52.232;5.176;2024-03-23T13:47:23;100706.41;;;9.90;50.93
86089;BME280;76699;52.232;5.176;2024-03-23T13:49:48;100698.00;;;9.95;50.74
86089;BME280;76699;52.232;5.176;2024-03-23T13:52:14;100699.13;;;10.18;50.71
86089;BME280;76699;52.232;5.176;2024-03-23T13:54:39;100694.66;;;10.45;50.81